createdAt,value
2019-05-30T00:00:21.260Z,6.12
2019-05-30T00:02:49.720Z,7.45
2019-05-30T00:05:18.143Z,8.00
2019-05-30T00:07:46.570Z,8.50
2019-05-30T00:10:15.183Z,5.80
2019-05-30T00:12:43.615Z,8.80
2019-05-30T00:15:12.377Z,6.92
2019-05-30T00:17:40.814Z,5.00
2019-05-30T00:20:09.679Z,5.45
2019-05-30T00:22:38.118Z,9.93
2019-05-30T00:25:07.876Z,6.97
2019-05-30T00:27:36.320Z,7.92
2019-05-30T00:30:22.852Z,5.22
2019-05-30T00:32:36.023Z,8.63
2019-05-30T00:35:06.227Z,10.25
2019-05-30T00:37:34.655Z,11.28
2019-05-30T00:40:04.133Z,7.40
2019-05-30T00:42:33.864Z,6.13
2019-05-30T00:45:08.860Z,11.20
2019-05-30T00:47:32.643Z,7.67
2019-05-30T00:50:02.472Z,5.87
2019-05-30T00:52:31.278Z,7.67
2019-05-30T00:55:00.668Z,6.03
2019-05-30T00:57:29.150Z,9.63
2019-05-30T00:59:58.749Z,5.80
2019-05-30T01:02:27.209Z,8.77
2019-05-30T01:04:56.962Z,12.43
2019-05-30T01:07:25.516Z,8.35
2019-05-30T01:09:54.285Z,6.90
2019-05-30T01:12:22.723Z,5.47
2019-05-30T01:14:51.149Z,7.00
2019-05-30T01:17:19.600Z,6.03
2019-05-30T01:19:48.021Z,6.10
2019-05-30T01:22:16.449Z,5.20
2019-05-30T01:24:44.894Z,5.35
2019-05-30T01:27:13.319Z,6.97
2019-05-30T01:29:41.794Z,6.70
2019-05-30T01:32:14.785Z,11.55
2019-05-30T01:34:43.205Z,6.95
2019-05-30T01:37:11.838Z,7.97
2019-05-30T01:39:40.265Z,5.97
2019-05-30T01:42:08.684Z,5.47
2019-05-30T01:44:37.120Z,7.05
2019-05-30T01:47:06.376Z,4.95
2019-05-30T01:49:34.947Z,9.28
2019-05-30T01:52:04.491Z,5.67
2019-05-30T01:54:33.147Z,5.83
2019-05-30T01:57:02.593Z,7.90
2019-05-30T01:59:31.214Z,8.90
2019-05-30T02:02:00.831Z,7.90
2019-05-30T02:04:29.351Z,7.42
2019-05-30T02:06:59.099Z,9.25
2019-05-30T02:09:27.710Z,7.33
2019-05-30T02:11:56.149Z,5.30
2019-05-30T02:14:24.583Z,7.72
2019-05-30T02:16:53.011Z,5.22
2019-05-30T02:19:21.448Z,6.75
2019-05-30T02:21:49.878Z,5.20
2019-05-30T02:24:18.367Z,6.87
2019-05-30T02:26:46.801Z,5.33
2019-05-30T02:29:15.219Z,5.55
2019-05-30T02:31:43.665Z,5.60
2019-05-30T02:34:12.449Z,5.55
2019-05-30T02:36:40.877Z,7.13
2019-05-30T02:39:10.303Z,5.83
2019-05-30T02:41:39.519Z,7.40
2019-05-30T02:44:09.699Z,7.35
2019-05-30T02:46:38.129Z,7.43
2019-05-30T02:49:11.049Z,6.20
2019-05-30T02:54:07.016Z,6.08
2019-05-30T02:56:35.347Z,7.60
2019-05-30T02:59:05.512Z,5.97
2019-05-30T03:01:33.916Z,5.77
2019-05-30T03:04:03.981Z,5.33
2019-05-30T03:06:33.041Z,6.92
2019-05-30T03:09:02.495Z,6.65
2019-05-30T03:14:02.014Z,7.83
2019-05-30T03:16:30.259Z,8.80
2019-05-30T03:18:59.072Z,7.08
2019-05-30T03:21:27.498Z,5.10
2019-05-30T03:23:55.911Z,6.62
2019-05-30T03:26:24.358Z,8.00
2019-05-30T03:28:53.639Z,5.50
2019-05-30T03:31:29.069Z,5.00
2019-05-30T03:33:54.856Z,5.03
2019-05-30T03:36:29.691Z,6.35
2019-05-30T03:38:53.772Z,6.05
2019-05-30T03:41:23.062Z,4.72
2019-05-30T03:43:51.489Z,6.58
2019-05-30T03:46:22.984Z,5.28
2019-05-30T03:48:54.793Z,5.17
2019-05-30T03:51:24.072Z,7.42
2019-05-30T03:53:53.039Z,6.62
2019-05-30T03:56:27.622Z,7.75
2019-05-30T03:59:09.818Z,6.42
2019-05-30T04:01:46.956Z,4.93
2019-05-30T04:04:21.081Z,7.12
2019-05-30T04:06:52.621Z,6.12
2019-05-30T04:09:25.057Z,9.90
2019-05-30T04:11:56.617Z,5.15
2019-05-30T04:14:28.370Z,12.90
2019-05-30T04:16:56.793Z,8.48
2019-05-30T04:19:25.241Z,10.18
2019-05-30T04:21:53.666Z,4.50
2019-05-30T04:24:22.082Z,6.67
2019-05-30T04:26:50.518Z,6.25
2019-05-30T04:29:19.113Z,7.78
2019-05-30T04:31:47.557Z,9.48
2019-05-30T04:34:17.121Z,8.05
2019-05-30T04:36:46.145Z,6.22
2019-05-30T04:39:15.179Z,8.58
2019-05-30T04:41:43.723Z,6.33
2019-05-30T04:44:13.851Z,7.97
2019-05-30T04:46:42.342Z,7.03
2019-05-30T04:49:12.339Z,4.85
2019-05-30T04:51:41.024Z,8.03
2019-05-30T04:54:10.346Z,6.22
2019-05-30T04:56:39.483Z,5.08
2019-05-30T04:59:08.171Z,8.55
2019-05-30T05:01:36.614Z,4.70
2019-05-30T05:04:05.054Z,4.87
2019-05-30T05:06:33.481Z,4.97
2019-05-30T05:09:01.939Z,6.22
2019-05-30T05:11:30.344Z,6.53
2019-05-30T05:13:58.853Z,7.17
2019-05-30T05:16:35.687Z,5.92
2019-05-30T05:18:57.459Z,5.90
2019-05-30T05:21:25.884Z,9.30
2019-05-30T05:23:54.312Z,5.15
2019-05-30T05:26:23.649Z,5.04
2019-05-30T05:28:52.070Z,5.92
2019-05-30T05:31:20.526Z,6.85
2019-05-30T05:33:56.555Z,6.87
2019-05-30T05:36:19.508Z,4.60
2019-05-30T05:38:47.946Z,5.95
2019-05-30T05:41:16.388Z,6.45
2019-05-30T05:43:44.818Z,7.10
2019-05-30T05:46:13.244Z,6.33
2019-05-30T05:48:41.678Z,11.60
2019-05-30T05:51:10.126Z,8.45
2019-05-30T05:53:38.589Z,6.42
2019-05-30T05:56:07.065Z,7.70
2019-05-30T05:58:35.493Z,7.85
2019-05-30T06:01:04.798Z,6.53
2019-05-30T06:03:33.219Z,5.73
2019-05-30T06:06:01.681Z,9.85
2019-05-30T06:08:30.094Z,5.58
2019-05-30T06:10:58.812Z,6.33
2019-05-30T06:13:27.257Z,6.47
2019-05-30T06:15:55.683Z,5.15
2019-05-30T06:18:24.275Z,5.45
2019-05-30T06:20:52.820Z,7.15
2019-05-30T06:23:21.605Z,7.37
2019-05-30T06:25:50.067Z,8.53
2019-05-30T06:28:18.534Z,4.87
2019-05-30T06:30:46.974Z,5.62
2019-05-30T06:33:15.438Z,7.37
2019-05-30T06:35:43.856Z,11.43
2019-05-30T06:38:12.318Z,5.75
2019-05-30T06:40:40.743Z,4.80
2019-05-30T06:43:09.213Z,5.40
2019-05-30T06:45:37.630Z,7.67
2019-05-30T06:48:06.059Z,6.08
2019-05-30T06:50:34.500Z,5.00
2019-05-30T06:53:03.010Z,5.28
2019-05-30T06:55:31.549Z,9.15
2019-05-30T06:57:59.962Z,6.87
2019-05-30T07:00:29.811Z,5.83
2019-05-30T07:02:58.440Z,9.45
2019-05-30T07:05:28.522Z,8.55
2019-05-30T07:07:57.198Z,5.10
2019-05-30T07:10:26.809Z,7.22
2019-05-30T07:15:23.296Z,7.67
2019-05-30T07:17:51.723Z,5.30
2019-05-30T07:20:20.651Z,5.53
2019-05-30T07:22:49.247Z,8.18
2019-05-30T07:25:17.656Z,7.00
2019-05-30T07:27:46.140Z,5.50
2019-05-30T07:30:15.303Z,6.70
2019-05-30T07:32:43.685Z,5.15
2019-05-30T07:35:12.240Z,6.83
2019-05-30T07:37:40.678Z,5.20
2019-05-30T07:40:10.353Z,6.90
2019-05-30T07:42:38.849Z,11.40
2019-05-30T07:45:09.947Z,7.83
2019-05-30T07:47:38.676Z,5.75
2019-05-30T07:50:07.719Z,8.20
2019-05-30T07:52:36.141Z,5.53
2019-05-30T07:55:06.988Z,6.87
2019-05-30T07:57:39.101Z,6.58
2019-05-30T08:00:10.855Z,6.72
2019-05-30T08:02:39.302Z,8.65
2019-05-30T08:05:23.029Z,10.03
2019-05-30T08:07:39.061Z,6.10
2019-05-30T08:10:08.957Z,6.05
2019-05-30T08:12:38.421Z,5.95
2019-05-30T08:15:08.837Z,8.45
2019-05-30T08:17:37.851Z,8.80
2019-05-30T08:20:07.222Z,9.45
2019-05-30T08:22:36.174Z,7.77
2019-05-30T08:25:07.939Z,6.60
2019-05-30T08:27:36.569Z,8.00
2019-05-30T08:30:10.800Z,7.37
2019-05-30T08:32:39.336Z,9.58
2019-05-30T08:35:08.109Z,8.35
2019-05-30T08:37:37.279Z,6.55
2019-05-30T08:40:08.197Z,8.95
2019-05-30T08:42:38.257Z,9.13
2019-05-30T08:47:36.615Z,10.53
2019-05-30T08:50:07.143Z,9.48
2019-05-30T08:52:36.450Z,11.25
2019-05-30T08:55:07.425Z,10.45
2019-05-30T08:57:36.607Z,14.80
2019-05-30T09:00:09.857Z,9.85
2019-05-30T09:02:38.850Z,10.18
2019-05-30T09:05:07.834Z,10.30
2019-05-30T09:07:36.545Z,10.20
2019-05-30T09:10:08.980Z,9.93
2019-05-30T09:12:38.619Z,13.32
2019-05-30T09:15:12.748Z,10.00
2019-05-30T09:17:42.594Z,12.30
2019-05-30T09:20:12.506Z,10.43
2019-05-30T09:22:41.857Z,13.77
2019-05-30T09:25:11.762Z,12.33
2019-05-30T09:27:41.407Z,10.75
2019-05-30T09:30:13.336Z,13.22
2019-05-30T09:32:43.258Z,10.05
2019-05-30T09:35:13.210Z,14.95
2019-05-30T09:37:42.384Z,9.60
2019-05-30T09:40:12.619Z,11.33
2019-05-30T09:42:42.660Z,10.68
2019-05-30T09:45:11.969Z,9.68
2019-05-30T09:47:41.953Z,9.93
2019-05-30T09:50:10.990Z,9.83
2019-05-30T09:52:41.739Z,9.33
2019-05-30T09:55:10.980Z,9.28
2019-05-30T09:57:39.407Z,9.75
2019-05-30T10:00:12.419Z,11.25
2019-05-30T10:02:42.958Z,11.05
2019-05-30T10:05:11.562Z,9.65
2019-05-30T10:07:39.983Z,9.88
2019-05-30T10:10:09.078Z,8.73
2019-05-30T10:12:37.509Z,8.70
2019-05-30T10:15:12.251Z,10.88
2019-05-30T10:17:40.964Z,11.40
2019-05-30T10:20:09.699Z,10.15
2019-05-30T10:22:38.223Z,14.28
2019-05-30T10:25:07.491Z,10.93
2019-05-30T10:27:35.921Z,12.97
2019-05-30T10:30:09.275Z,10.68
2019-05-30T10:32:37.890Z,11.18
2019-05-30T10:35:08.762Z,13.95
2019-05-30T10:37:37.190Z,10.88
2019-05-30T10:40:08.378Z,12.30
2019-05-30T10:42:36.803Z,13.18
2019-05-30T10:45:10.096Z,9.65
2019-05-30T10:47:38.753Z,9.73
2019-05-30T10:50:08.233Z,12.25
2019-05-30T10:52:36.734Z,8.90
2019-05-30T10:55:09.833Z,8.63
2019-05-30T10:57:38.250Z,10.25
2019-05-30T11:00:12.658Z,9.33
2019-05-30T11:02:41.328Z,11.18
2019-05-30T11:05:11.876Z,8.88
2019-05-30T11:08:06.951Z,7.75
2019-05-30T11:10:38.157Z,7.65
2019-05-30T11:13:09.347Z,10.30
2019-05-30T11:15:37.954Z,8.08
2019-05-30T11:18:06.405Z,8.98
2019-05-30T11:20:34.822Z,9.53
2019-05-30T11:23:03.253Z,7.70
2019-05-30T11:25:32.928Z,7.30
2019-05-30T11:28:01.374Z,9.60
2019-05-30T11:30:30.076Z,8.23
2019-05-30T11:32:59.434Z,8.70
2019-05-30T11:35:28.308Z,8.50
2019-05-30T11:37:57.240Z,8.83
2019-05-30T11:40:25.780Z,8.35
2019-05-30T11:42:55.394Z,9.20
2019-05-30T11:45:24.404Z,7.75
2019-05-30T11:47:53.802Z,7.50
2019-05-30T11:50:23.080Z,10.58
2019-05-30T11:52:51.769Z,9.50
2019-05-30T11:55:20.321Z,11.10
2019-05-30T11:57:49.865Z,8.63
2019-05-30T12:00:19.015Z,8.25
2019-05-30T12:02:47.437Z,9.83
2019-05-30T12:05:16.328Z,8.05
2019-05-30T12:07:44.751Z,9.53
2019-05-30T12:10:14.322Z,8.48
2019-05-30T12:12:42.830Z,8.98
2019-05-30T12:15:13.030Z,11.03
2019-05-30T12:17:41.906Z,9.60
2019-05-30T12:20:10.979Z,8.63
2019-05-30T12:22:39.414Z,12.43
2019-05-30T12:25:08.586Z,11.70
2019-05-30T12:27:37.033Z,13.63
2019-05-30T12:30:12.403Z,10.80
2019-05-30T12:32:40.842Z,11.53
2019-05-30T12:35:10.207Z,11.45
2019-05-30T12:37:53.348Z,27.23
2019-05-30T12:42:38.372Z,29.70
2019-05-30T12:45:08.629Z,22.07
2019-05-30T12:47:37.193Z,20.90
2019-05-30T12:50:07.947Z,14.63
2019-05-30T12:52:36.405Z,14.10
2019-05-30T12:55:10.100Z,14.33
2019-05-30T12:57:38.801Z,18.75
2019-05-30T13:00:18.429Z,19.23
2019-05-30T13:02:39.843Z,17.60
2019-05-30T13:05:10.243Z,20.37
2019-05-30T13:07:38.763Z,18.62
2019-05-30T13:10:08.133Z,19.40
2019-05-30T13:12:36.576Z,20.93
2019-05-30T13:15:08.453Z,20.08
2019-05-30T13:17:36.933Z,19.75
2019-05-30T13:20:07.988Z,19.85
2019-05-30T13:22:36.421Z,19.77
2019-05-30T13:25:09.050Z,20.88
2019-05-30T13:27:37.567Z,19.98
2019-05-30T13:30:10.076Z,18.70
2019-05-30T13:32:38.504Z,21.42
2019-05-30T13:35:07.907Z,20.40
2019-05-30T13:37:36.403Z,23.87
2019-05-30T13:40:24.330Z,21.85
2019-05-30T13:42:41.477Z,22.07
2019-05-30T13:45:10.906Z,19.05
2019-05-30T13:47:39.686Z,19.47
2019-05-30T13:50:13.398Z,20.77
2019-05-30T13:52:41.323Z,21.30
2019-05-30T13:55:10.654Z,19.12
2019-05-30T13:57:39.385Z,30.20
2019-05-30T14:00:10.726Z,18.65
2019-05-30T14:02:39.293Z,17.92
2019-05-30T14:05:10.517Z,16.77
2019-05-30T14:07:39.282Z,15.80
2019-05-30T14:10:08.642Z,20.48
2019-05-30T14:12:37.286Z,16.48
2019-05-30T14:15:13.154Z,16.02
2019-05-30T14:17:39.618Z,15.23
2019-05-30T14:20:11.060Z,20.43
2019-05-30T14:22:39.771Z,15.32
2019-05-30T14:25:09.662Z,14.90
2019-05-30T14:27:38.432Z,14.10
2019-05-30T14:30:08.975Z,15.38
2019-05-30T14:32:37.664Z,15.70
2019-05-30T14:35:11.742Z,15.10
2019-05-30T14:37:39.901Z,14.30
2019-05-30T14:40:15.873Z,16.45
2019-05-30T14:42:44.321Z,17.52
2019-05-30T14:45:16.648Z,14.85
2019-05-30T14:47:45.232Z,14.15
2019-05-30T14:50:17.148Z,14.40
2019-05-30T14:52:45.911Z,17.52
2019-05-30T14:55:15.021Z,15.38
2019-05-30T14:57:43.451Z,14.80
2019-05-30T15:00:17.824Z,18.82
2019-05-30T15:02:46.343Z,15.65
2019-05-30T15:05:15.820Z,14.53
2019-05-30T15:07:44.336Z,14.55
2019-05-30T15:10:14.657Z,15.40
2019-05-30T15:12:43.090Z,15.32
2019-05-30T15:15:14.776Z,16.30
2019-05-30T15:17:42.125Z,19.25
2019-05-30T15:20:12.136Z,15.58
2019-05-30T15:22:40.986Z,14.28
2019-05-30T15:25:10.015Z,16.57
2019-05-30T15:27:38.469Z,16.12
2019-05-30T15:30:12.477Z,14.95
2019-05-30T15:32:41.095Z,13.38
2019-05-30T15:35:11.032Z,14.23
2019-05-30T15:37:40.880Z,14.25
2019-05-30T15:40:11.385Z,14.13
2019-05-30T15:42:39.839Z,14.07
2019-05-30T15:45:10.278Z,13.90
2019-05-30T15:47:38.789Z,14.50
2019-05-30T15:50:08.323Z,13.93
2019-05-30T15:52:37.292Z,15.18
2019-05-30T15:55:07.450Z,14.73
2019-05-30T15:57:36.460Z,15.15
2019-05-30T16:00:08.033Z,15.18
2019-05-30T16:02:36.468Z,16.75
2019-05-30T16:05:06.643Z,14.73
2019-05-30T16:07:35.088Z,14.43
2019-05-30T16:10:05.157Z,14.90
2019-05-30T16:12:33.602Z,16.27
2019-05-30T16:15:02.040Z,14.03
2019-05-30T16:17:30.531Z,14.83
2019-05-30T16:19:58.967Z,15.75
2019-05-30T16:22:27.968Z,14.43
2019-05-30T16:24:56.410Z,17.90
2019-05-30T16:27:25.986Z,15.45
2019-05-30T16:29:54.465Z,16.00
2019-05-30T16:32:22.951Z,14.90
2019-05-30T16:34:52.170Z,13.03
2019-05-30T16:37:20.615Z,18.25
2019-05-30T16:40:04.690Z,13.72
2019-05-30T16:42:20.261Z,16.60
2019-05-30T16:44:49.030Z,13.88
2019-05-30T16:47:18.400Z,13.98
2019-05-30T16:49:46.954Z,15.43
2019-05-30T16:52:15.384Z,13.72
2019-05-30T16:54:43.818Z,14.15
2019-05-30T16:57:12.256Z,13.38
2019-05-30T16:59:40.727Z,14.80
2019-05-30T17:02:09.260Z,14.47
2019-05-30T17:04:37.677Z,14.28
2019-05-30T17:07:06.170Z,27.52
2019-05-30T17:09:34.598Z,16.32
2019-05-30T17:12:03.089Z,15.03
2019-05-30T17:14:31.602Z,16.12
2019-05-30T17:17:02.840Z,17.60
2019-05-30T17:19:30.229Z,16.05
2019-05-30T17:21:58.759Z,14.63
2019-05-30T17:24:27.334Z,15.10
2019-05-30T17:26:55.808Z,23.35
2019-05-30T17:29:25.636Z,18.12
2019-05-30T17:34:21.898Z,20.15
2019-05-30T17:36:50.365Z,16.65
2019-05-30T17:39:18.954Z,16.60
2019-05-30T17:41:47.503Z,15.72
2019-05-30T17:44:15.984Z,19.20
2019-05-30T17:46:44.430Z,18.85
2019-05-30T17:49:12.865Z,16.73
2019-05-30T17:51:41.329Z,14.90
2019-05-30T17:54:09.773Z,14.25
2019-05-30T17:56:38.189Z,14.07
2019-05-30T17:59:06.633Z,16.27
2019-05-30T18:01:35.070Z,14.87
2019-05-30T18:04:03.606Z,14.70
2019-05-30T18:06:32.038Z,15.37
2019-05-30T18:09:00.482Z,14.87
2019-05-30T18:11:29.075Z,14.00
2019-05-30T18:13:57.538Z,16.27
2019-05-30T18:16:27.091Z,15.03
2019-05-30T18:18:56.150Z,17.80
2019-05-30T18:21:25.415Z,18.07
2019-05-30T18:23:53.855Z,18.30
2019-05-30T18:26:23.413Z,16.40
2019-05-30T18:28:51.966Z,17.02
2019-05-30T18:31:21.804Z,19.32
2019-05-30T18:33:50.423Z,19.32
2019-05-30T18:36:18.857Z,17.85
2019-05-30T18:38:47.311Z,20.23
2019-05-30T18:41:16.661Z,16.05
2019-05-30T18:43:45.144Z,15.90
2019-05-30T18:46:13.581Z,15.90
2019-05-30T18:48:42.017Z,15.93
2019-05-30T18:51:10.523Z,16.62
2019-05-30T18:53:39.039Z,15.90
2019-05-30T18:56:07.801Z,18.60
2019-05-30T18:58:37.257Z,18.47
2019-05-30T19:01:06.197Z,15.80
2019-05-30T19:03:34.677Z,16.52
2019-05-30T19:06:03.179Z,18.95
2019-05-30T19:08:32.065Z,16.23
2019-05-30T19:11:00.531Z,16.62
2019-05-30T19:13:29.064Z,16.85
2019-05-30T19:15:57.440Z,18.00
2019-05-30T19:18:25.864Z,16.30
2019-05-30T19:20:54.304Z,18.85
2019-05-30T19:23:22.735Z,17.15
2019-05-30T19:25:51.193Z,19.27
2019-05-30T19:28:19.620Z,15.63
2019-05-30T19:30:48.065Z,14.28
2019-05-30T19:33:20.517Z,17.95
2019-05-30T19:35:49.506Z,16.32
2019-05-30T19:38:16.889Z,15.98
2019-05-30T19:40:45.373Z,23.00
2019-05-30T19:43:13.789Z,19.67
2019-05-30T19:45:42.243Z,19.77
2019-05-30T19:48:10.958Z,19.25
2019-05-30T19:50:39.405Z,15.60
2019-05-30T19:53:07.843Z,19.17
2019-05-30T19:55:37.527Z,16.17
2019-05-30T19:58:06.086Z,15.80
2019-05-30T20:00:50.217Z,16.87
2019-05-30T20:03:05.422Z,18.52
2019-05-30T20:05:34.509Z,18.25
2019-05-30T20:08:03.091Z,17.67
2019-05-30T20:10:32.724Z,17.17
2019-05-30T20:13:01.248Z,19.37
2019-05-30T20:15:31.156Z,17.87
2019-05-30T20:20:27.490Z,19.67
2019-05-30T20:22:55.950Z,16.12
2019-05-30T20:25:24.887Z,19.67
2019-05-30T20:27:53.387Z,20.97
2019-05-30T20:30:22.159Z,15.53
2019-05-30T20:32:50.614Z,20.70
2019-05-30T20:35:19.034Z,16.10
2019-05-30T20:37:47.470Z,16.48
2019-05-30T20:40:16.744Z,19.00
2019-05-30T20:42:45.184Z,16.87
2019-05-30T20:45:15.664Z,21.75
2019-05-30T20:47:44.547Z,16.13
2019-05-30T20:50:15.096Z,17.73
2019-05-30T20:52:45.632Z,15.45
2019-05-30T20:57:42.531Z,15.98
2019-05-30T21:00:12.895Z,18.92
2019-05-30T21:02:41.351Z,19.20
2019-05-30T21:05:10.229Z,17.60
2019-05-30T21:07:39.825Z,20.10
2019-05-30T21:10:11.259Z,20.20
2019-05-30T21:12:43.535Z,20.85
2019-05-30T21:17:37.921Z,22.90
2019-05-30T21:20:11.135Z,18.87
2019-05-30T21:22:38.247Z,22.07
2019-05-30T21:25:08.125Z,19.07
2019-05-30T21:30:07.515Z,21.30
2019-05-30T21:32:37.202Z,20.82
2019-05-30T21:35:08.152Z,19.90
2019-05-30T21:37:37.650Z,22.30
2019-05-30T21:40:09.309Z,21.17
2019-05-30T21:42:55.330Z,22.95
2019-05-30T21:45:08.585Z,25.52
2019-05-30T21:47:37.015Z,24.07
2019-05-30T21:50:06.793Z,22.27
2019-05-30T21:52:35.254Z,23.60
2019-05-30T21:55:04.926Z,21.15
2019-05-30T22:00:01.028Z,23.38
2019-05-30T22:02:29.525Z,24.70
2019-05-30T22:04:57.971Z,24.32
2019-05-30T22:07:26.419Z,24.87
2019-05-30T22:09:54.858Z,22.82
2019-05-30T22:12:23.307Z,20.62
2019-05-30T22:14:52.047Z,25.85
2019-05-30T22:17:20.555Z,23.00
2019-05-30T22:19:50.047Z,28.62
2019-05-30T22:22:18.658Z,23.12
2019-05-30T22:24:48.384Z,20.43
2019-05-30T22:27:16.996Z,22.85
2019-05-30T22:29:46.384Z,24.23
2019-05-30T22:32:14.869Z,22.80
2019-05-30T22:34:44.611Z,20.65
2019-05-30T22:37:13.285Z,21.90
2019-05-30T22:39:42.754Z,21.40
2019-05-30T22:44:38.995Z,20.82
2019-05-30T22:47:07.447Z,23.77
2019-05-30T22:49:35.893Z,24.27
2019-05-30T22:52:04.335Z,24.90
2019-05-30T22:54:32.774Z,23.05
2019-05-30T22:57:01.537Z,22.77
2019-05-30T22:59:30.030Z,20.97
2019-05-30T23:01:58.476Z,25.45
2019-05-30T23:04:26.916Z,23.18
2019-05-30T23:06:56.433Z,21.93
2019-05-30T23:09:24.872Z,19.30
2019-05-30T23:11:53.860Z,24.77
2019-05-30T23:14:22.431Z,18.27
2019-05-30T23:16:52.228Z,22.82
2019-05-30T23:19:20.810Z,23.38
2019-05-30T23:21:49.250Z,18.73
2019-05-30T23:24:17.686Z,24.70
2019-05-30T23:26:47.393Z,24.15
2019-05-30T23:29:15.924Z,20.97
2019-05-30T23:31:44.381Z,22.07
2019-05-30T23:34:12.827Z,22.52
2019-05-30T23:36:41.258Z,21.33
2019-05-30T23:39:09.713Z,21.55
2019-05-30T23:41:38.187Z,23.05
2019-05-30T23:44:11.153Z,24.07
2019-05-30T23:46:36.793Z,23.47
2019-05-30T23:49:05.232Z,27.85
2019-05-30T23:51:33.681Z,21.90
2019-05-30T23:54:02.141Z,22.95
2019-05-30T23:56:30.576Z,24.53
2019-05-30T23:58:59.010Z,26.52
